sensor_id;sensor_type;location;lat;lon;timestamp;P1;durP1;ratioP1;P2;durP2;ratioP2
635;SDS011;302;50.206;8.196;2023-06-26T00:01:28;6.67;;;6.07;;
635;SDS011;302;50.206;8.196;2023-06-26T00:04:00;6.50;;;6.00;;
635;SDS011;302;50.206;8.196;2023-06-26T00:06:25;5.97;;;5.47;;
635;SDS011;302;50.206;8.196;2023-06-26T00:08:54;5.30;;;4.90;;
635;SDS011;302;50.206;8.196;2023-06-26T00:11:20;6.28;;;5.78;;
635;SDS011;302;50.206;8.196;2023-06-26T00:13:45;6.00;;;5.50;;
635;SDS011;302;50.206;8.196;2023-06-26T00:16:10;5.90;;;5.30;;
635;SDS011;302;50.206;8.196;2023-06-26T00:18:35;6.70;;;6.10;;
635;SDS011;302;50.206;8.196;2023-06-26T00:21:01;6.60;;;6.07;;
635;SDS011;302;50.206;8.196;2023-06-26T00:23:26;6.40;;;5.90;;
635;SDS011;302;50.206;8.196;2023-06-26T00:25:52;6.43;;;5.80;;
635;SDS011;302;50.206;8.196;2023-06-26T00:28:17;6.43;;;5.90;;
635;SDS011;302;50.206;8.196;2023-06-26T00:30:42;6.18;;;5.68;;
635;SDS011;302;50.206;8.196;2023-06-26T00:33:08;5.67;;;5.27;;
635;SDS011;302;50.206;8.196;2023-06-26T00:35:33;6.13;;;5.63;;
635;SDS011;302;50.206;8.196;2023-06-26T00:37:58;6.33;;;5.73;;
635;SDS011;302;50.206;8.196;2023-06-26T00:40:23;6.80;;;6.23;;
635;SDS011;302;50.206;8.196;2023-06-26T00:42:49;6.30;;;5.80;;
635;SDS011;302;50.206;8.196;2023-06-26T00:45:14;6.93;;;6.33;;
635;SDS011;302;50.206;8.196;2023-06-26T00:47:39;6.50;;;6.00;;
635;SDS011;302;50.206;8.196;2023-06-26T00:50:05;6.83;;;6.30;;
635;SDS011;302;50.206;8.196;2023-06-26T00:52:31;6.20;;;5.73;;
635;SDS011;302;50.206;8.196;2023-06-26T00:54:56;7.60;;;6.90;;
635;SDS011;302;50.206;8.196;2023-06-26T00:57:21;6.60;;;6.10;;
635;SDS011;302;50.206;8.196;2023-06-26T00:59:47;6.37;;;5.77;;
635;SDS011;302;50.206;8.196;2023-06-26T01:02:13;6.60;;;6.10;;
635;SDS011;302;50.206;8.196;2023-06-26T01:04:44;6.65;;;6.15;;
635;SDS011;302;50.206;8.196;2023-06-26T01:07:12;6.80;;;6.20;;
635;SDS011;302;50.206;8.196;2023-06-26T01:09:37;6.90;;;6.40;;
635;SDS011;302;50.206;8.196;2023-06-26T01:12:02;7.25;;;6.65;;
635;SDS011;302;50.206;8.196;2023-06-26T01:14:28;6.77;;;6.27;;
635;SDS011;302;50.206;8.196;2023-06-26T01:16:53;6.78;;;6.20;;
635;SDS011;302;50.206;8.196;2023-06-26T01:19:27;7.20;;;6.50;;
635;SDS011;302;50.206;8.196;2023-06-26T01:21:58;7.07;;;6.47;;
635;SDS011;302;50.206;8.196;2023-06-26T01:24:25;6.93;;;6.40;;
635;SDS011;302;50.206;8.196;2023-06-26T01:26:54;6.78;;;6.20;;
635;SDS011;302;50.206;8.196;2023-06-26T01:29:19;6.43;;;5.93;;
635;SDS011;302;50.206;8.196;2023-06-26T01:31:46;6.75;;;6.15;;
635;SDS011;302;50.206;8.196;2023-06-26T01:34:13;7.03;;;6.50;;
635;SDS011;302;50.206;8.196;2023-06-26T01:36:39;6.32;;;5.82;;
635;SDS011;302;50.206;8.196;2023-06-26T01:39:04;6.90;;;6.27;;
635;SDS011;302;50.206;8.196;2023-06-26T01:41:29;7.20;;;6.60;;
635;SDS011;302;50.206;8.196;2023-06-26T01:46:24;6.35;;;5.85;;
635;SDS011;302;50.206;8.196;2023-06-26T01:51:18;7.22;;;6.50;;
635;SDS011;302;50.206;8.196;2023-06-26T01:53:46;6.25;;;5.75;;
635;SDS011;302;50.206;8.196;2023-06-26T01:56:16;6.65;;;6.05;;
635;SDS011;302;50.206;8.196;2023-06-26T01:58:43;6.97;;;6.28;;
635;SDS011;302;50.206;8.196;2023-06-26T02:01:08;6.88;;;6.22;;
635;SDS011;302;50.206;8.196;2023-06-26T02:03:33;7.33;;;6.53;;
635;SDS011;302;50.206;8.196;2023-06-26T02:05:58;6.30;;;5.80;;
635;SDS011;302;50.206;8.196;2023-06-26T02:08:24;7.13;;;6.43;;
635;SDS011;302;50.206;8.196;2023-06-26T02:10:49;5.97;;;5.37;;
635;SDS011;302;50.206;8.196;2023-06-26T02:13:14;6.53;;;6.03;;
635;SDS011;302;50.206;8.196;2023-06-26T02:15:39;7.05;;;6.38;;
635;SDS011;302;50.206;8.196;2023-06-26T02:18:04;6.33;;;5.83;;
635;SDS011;302;50.206;8.196;2023-06-26T02:20:29;6.93;;;6.32;;
635;SDS011;302;50.206;8.196;2023-06-26T02:22:54;6.47;;;5.97;;
635;SDS011;302;50.206;8.196;2023-06-26T02:25:20;6.40;;;5.90;;
635;SDS011;302;50.206;8.196;2023-06-26T02:27:45;7.55;;;6.85;;
635;SDS011;302;50.206;8.196;2023-06-26T02:30:10;7.17;;;6.47;;
635;SDS011;302;50.206;8.196;2023-06-26T02:32:35;6.20;;;5.70;;
635;SDS011;302;50.206;8.196;2023-06-26T02:35:01;6.60;;;6.00;;
635;SDS011;302;50.206;8.196;2023-06-26T02:37:26;6.80;;;6.20;;
635;SDS011;302;50.206;8.196;2023-06-26T02:39:51;7.17;;;6.57;;
635;SDS011;302;50.206;8.196;2023-06-26T02:42:16;6.60;;;6.00;;
635;SDS011;302;50.206;8.196;2023-06-26T02:44:41;6.73;;;6.23;;
635;SDS011;302;50.206;8.196;2023-06-26T02:47:06;5.97;;;5.55;;
635;SDS011;302;50.206;8.196;2023-06-26T02:49:31;6.10;;;5.60;;
635;SDS011;302;50.206;8.196;2023-06-26T02:51:57;6.53;;;6.00;;
635;SDS011;302;50.206;8.196;2023-06-26T02:54:22;6.83;;;6.23;;
635;SDS011;302;50.206;8.196;2023-06-26T02:56:47;6.80;;;6.30;;
635;SDS011;302;50.206;8.196;2023-06-26T02:59:13;6.70;;;6.20;;
635;SDS011;302;50.206;8.196;2023-06-26T03:01:38;6.27;;;5.77;;
635;SDS011;302;50.206;8.196;2023-06-26T03:04:03;6.20;;;5.70;;
635;SDS011;302;50.206;8.196;2023-06-26T03:06:29;6.40;;;5.80;;
635;SDS011;302;50.206;8.196;2023-06-26T03:08:54;6.83;;;6.23;;
635;SDS011;302;50.206;8.196;2023-06-26T03:11:19;6.50;;;6.00;;
635;SDS011;302;50.206;8.196;2023-06-26T03:13:44;6.60;;;6.03;;
635;SDS011;302;50.206;8.196;2023-06-26T03:16:10;7.13;;;6.53;;
635;SDS011;302;50.206;8.196;2023-06-26T03:18:35;7.10;;;6.50;;
635;SDS011;302;50.206;8.196;2023-06-26T03:21:00;5.88;;;5.38;;
635;SDS011;302;50.206;8.196;2023-06-26T03:23:25;6.70;;;6.10;;
635;SDS011;302;50.206;8.196;2023-06-26T03:25:51;7.13;;;6.53;;
635;SDS011;302;50.206;8.196;2023-06-26T03:28:16;7.10;;;6.50;;
635;SDS011;302;50.206;8.196;2023-06-26T03:30:41;7.40;;;6.80;;
635;SDS011;302;50.206;8.196;2023-06-26T03:33:06;6.90;;;6.30;;
635;SDS011;302;50.206;8.196;2023-06-26T03:35:31;6.53;;;5.93;;
635;SDS011;302;50.206;8.196;2023-06-26T03:37:57;6.90;;;6.30;;
635;SDS011;302;50.206;8.196;2023-06-26T03:40:22;6.50;;;6.00;;
635;SDS011;302;50.206;8.196;2023-06-26T03:42:48;7.50;;;6.80;;
635;SDS011;302;50.206;8.196;2023-06-26T03:45:13;6.40;;;5.90;;
635;SDS011;302;50.206;8.196;2023-06-26T03:47:38;6.32;;;5.82;;
635;SDS011;302;50.206;8.196;2023-06-26T03:50:03;6.35;;;5.85;;
635;SDS011;302;50.206;8.196;2023-06-26T03:52:29;6.57;;;6.07;;
635;SDS011;302;50.206;8.196;2023-06-26T03:54:55;6.05;;;5.55;;
635;SDS011;302;50.206;8.196;2023-06-26T03:57:21;6.77;;;6.27;;
635;SDS011;302;50.206;8.196;2023-06-26T03:59:46;6.53;;;5.85;;
635;SDS011;302;50.206;8.196;2023-06-26T04:02:11;6.80;;;6.20;;
635;SDS011;302;50.206;8.196;2023-06-26T04:04:37;6.53;;;6.00;;
635;SDS011;302;50.206;8.196;2023-06-26T04:07:02;5.85;;;5.35;;
635;SDS011;302;50.206;8.196;2023-06-26T04:09:27;6.00;;;5.50;;
635;SDS011;302;50.206;8.196;2023-06-26T04:11:52;5.90;;;5.50;;
635;SDS011;302;50.206;8.196;2023-06-26T04:14:18;5.67;;;5.17;;
635;SDS011;302;50.206;8.196;2023-06-26T04:16:43;6.43;;;5.82;;
635;SDS011;302;50.206;8.196;2023-06-26T04:19:08;6.60;;;6.00;;
635;SDS011;302;50.206;8.196;2023-06-26T04:21:35;6.28;;;5.78;;
635;SDS011;302;50.206;8.196;2023-06-26T04:24:00;6.83;;;6.27;;
635;SDS011;302;50.206;8.196;2023-06-26T04:26:25;6.63;;;6.10;;
635;SDS011;302;50.206;8.196;2023-06-26T04:28:50;6.87;;;6.13;;
635;SDS011;302;50.206;8.196;2023-06-26T04:31:15;7.50;;;6.90;;
635;SDS011;302;50.206;8.196;2023-06-26T04:33:40;5.57;;;5.13;;
635;SDS011;302;50.206;8.196;2023-06-26T04:36:06;6.32;;;5.82;;
635;SDS011;302;50.206;8.196;2023-06-26T04:38:31;6.77;;;5.40;;
635;SDS011;302;50.206;8.196;2023-06-26T04:40:57;6.97;;;6.47;;
635;SDS011;302;50.206;8.196;2023-06-26T04:43:22;7.43;;;6.73;;
635;SDS011;302;50.206;8.196;2023-06-26T04:45:47;5.67;;;5.27;;
635;SDS011;302;50.206;8.196;2023-06-26T04:48:12;7.07;;;6.47;;
635;SDS011;302;50.206;8.196;2023-06-26T04:50:38;6.70;;;6.20;;
635;SDS011;302;50.206;8.196;2023-06-26T04:53:03;6.07;;;5.57;;
635;SDS011;302;50.206;8.196;2023-06-26T04:55:28;6.40;;;5.90;;
635;SDS011;302;50.206;8.196;2023-06-26T04:57:53;6.33;;;5.73;;
635;SDS011;302;50.206;8.196;2023-06-26T05:00:18;6.45;;;5.90;;
635;SDS011;302;50.206;8.196;2023-06-26T05:02:44;6.20;;;5.70;;
635;SDS011;302;50.206;8.196;2023-06-26T05:05:09;6.47;;;5.57;;
635;SDS011;302;50.206;8.196;2023-06-26T05:07:35;6.40;;;5.80;;
635;SDS011;302;50.206;8.196;2023-06-26T05:10:00;6.80;;;6.20;;
635;SDS011;302;50.206;8.196;2023-06-26T05:12:25;6.50;;;6.00;;
635;SDS011;302;50.206;8.196;2023-06-26T05:14:51;6.50;;;6.00;;
635;SDS011;302;50.206;8.196;2023-06-26T05:17:16;7.00;;;6.30;;
635;SDS011;302;50.206;8.196;2023-06-26T05:19:41;6.80;;;6.30;;
635;SDS011;302;50.206;8.196;2023-06-26T05:22:07;6.60;;;6.00;;
635;SDS011;302;50.206;8.196;2023-06-26T05:24:35;6.87;;;6.27;;
635;SDS011;302;50.206;8.196;2023-06-26T05:27:01;6.38;;;5.88;;
635;SDS011;302;50.206;8.196;2023-06-26T05:29:26;7.63;;;7.03;;
635;SDS011;302;50.206;8.196;2023-06-26T05:31:51;7.20;;;6.53;;
635;SDS011;302;50.206;8.196;2023-06-26T05:34:17;7.13;;;6.50;;
635;SDS011;302;50.206;8.196;2023-06-26T05:36:44;6.65;;;6.05;;
635;SDS011;302;50.206;8.196;2023-06-26T05:39:10;7.15;;;6.45;;
635;SDS011;302;50.206;8.196;2023-06-26T05:41:36;6.63;;;6.07;;
635;SDS011;302;50.206;8.196;2023-06-26T05:44:01;6.60;;;6.00;;
635;SDS011;302;50.206;8.196;2023-06-26T05:46:26;6.50;;;5.97;;
635;SDS011;302;50.206;8.196;2023-06-26T05:48:51;5.87;;;5.47;;
635;SDS011;302;50.206;8.196;2023-06-26T05:51:17;6.57;;;5.97;;
635;SDS011;302;50.206;8.196;2023-06-26T05:53:42;6.97;;;6.37;;
635;SDS011;302;50.206;8.196;2023-06-26T05:56:07;6.60;;;6.00;;
635;SDS011;302;50.206;8.196;2023-06-26T05:58:32;6.20;;;5.70;;
635;SDS011;302;50.206;8.196;2023-06-26T06:00:58;6.90;;;6.30;;
635;SDS011;302;50.206;8.196;2023-06-26T06:03:23;7.17;;;6.57;;
635;SDS011;302;50.206;8.196;2023-06-26T06:05:48;6.03;;;5.53;;
635;SDS011;302;50.206;8.196;2023-06-26T06:08:14;6.53;;;6.03;;
635;SDS011;302;50.206;8.196;2023-06-26T06:10:39;6.47;;;5.97;;
635;SDS011;302;50.206;8.196;2023-06-26T06:13:04;7.20;;;6.50;;
635;SDS011;302;50.206;8.196;2023-06-26T06:15:29;7.00;;;6.50;;
635;SDS011;302;50.206;8.196;2023-06-26T06:17:54;7.20;;;6.60;;
635;SDS011;302;50.206;8.196;2023-06-26T06:20:20;6.78;;;6.18;;
635;SDS011;302;50.206;8.196;2023-06-26T06:22:45;7.73;;;7.03;;
635;SDS011;302;50.206;8.196;2023-06-26T06:25:10;6.70;;;6.20;;
635;SDS011;302;50.206;8.196;2023-06-26T06:27:35;7.50;;;6.90;;
635;SDS011;302;50.206;8.196;2023-06-26T06:30:00;6.82;;;6.22;;
635;SDS011;302;50.206;8.196;2023-06-26T06:32:26;6.77;;;6.27;;
635;SDS011;302;50.206;8.196;2023-06-26T06:34:51;7.03;;;6.43;;
635;SDS011;302;50.206;8.196;2023-06-26T06:37:16;7.17;;;6.57;;
635;SDS011;302;50.206;8.196;2023-06-26T06:39:41;7.50;;;6.82;;
635;SDS011;302;50.206;8.196;2023-06-26T06:42:06;6.68;;;6.07;;
635;SDS011;302;50.206;8.196;2023-06-26T06:44:31;6.83;;;6.33;;
635;SDS011;302;50.206;8.196;2023-06-26T06:46:57;6.23;;;5.73;;
635;SDS011;302;50.206;8.196;2023-06-26T06:49:22;7.30;;;6.70;;
635;SDS011;302;50.206;8.196;2023-06-26T06:51:47;6.80;;;6.28;;
635;SDS011;302;50.206;8.196;2023-06-26T06:54:12;6.97;;;6.28;;
635;SDS011;302;50.206;8.196;2023-06-26T06:56:37;7.38;;;6.78;;
635;SDS011;302;50.206;8.196;2023-06-26T06:59:02;6.00;;;5.50;;
635;SDS011;302;50.206;8.196;2023-06-26T07:01:28;7.00;;;6.40;;
635;SDS011;302;50.206;8.196;2023-06-26T07:03:53;7.07;;;6.50;;
635;SDS011;302;50.206;8.196;2023-06-26T07:06:18;6.80;;;6.30;;
635;SDS011;302;50.206;8.196;2023-06-26T07:08:43;7.10;;;6.40;;
635;SDS011;302;50.206;8.196;2023-06-26T07:11:08;7.07;;;6.57;;
635;SDS011;302;50.206;8.196;2023-06-26T07:13:34;7.30;;;6.70;;
635;SDS011;302;50.206;8.196;2023-06-26T07:15:59;8.40;;;7.63;;
635;SDS011;302;50.206;8.196;2023-06-26T07:18:24;6.23;;;5.73;;
635;SDS011;302;50.206;8.196;2023-06-26T07:20:49;6.70;;;6.10;;
635;SDS011;302;50.206;8.196;2023-06-26T07:23:14;7.18;;;6.68;;
635;SDS011;302;50.206;8.196;2023-06-26T07:25:39;6.83;;;6.30;;
635;SDS011;302;50.206;8.196;2023-06-26T07:28:09;7.80;;;7.10;;
635;SDS011;302;50.206;8.196;2023-06-26T07:30:34;7.30;;;6.70;;
635;SDS011;302;50.206;8.196;2023-06-26T07:32:59;8.30;;;7.60;;
635;SDS011;302;50.206;8.196;2023-06-26T07:35:25;7.43;;;6.78;;
635;SDS011;302;50.206;8.196;2023-06-26T07:37:52;6.70;;;6.20;;
635;SDS011;302;50.206;8.196;2023-06-26T07:40:17;6.13;;;5.63;;
635;SDS011;302;50.206;8.196;2023-06-26T07:42:42;6.97;;;6.47;;
635;SDS011;302;50.206;8.196;2023-06-26T07:45:08;7.00;;;6.30;;
635;SDS011;302;50.206;8.196;2023-06-26T07:47:37;7.13;;;6.53;;
635;SDS011;302;50.206;8.196;2023-06-26T07:50:02;7.53;;;6.93;;
635;SDS011;302;50.206;8.196;2023-06-26T07:52:27;7.63;;;6.90;;
635;SDS011;302;50.206;8.196;2023-06-26T07:54:52;6.83;;;6.33;;
635;SDS011;302;50.206;8.196;2023-06-26T07:57:17;7.35;;;6.75;;
635;SDS011;302;50.206;8.196;2023-06-26T07:59:43;7.07;;;6.50;;
635;SDS011;302;50.206;8.196;2023-06-26T08:02:08;7.40;;;6.80;;
635;SDS011;302;50.206;8.196;2023-06-26T08:04:33;7.43;;;6.82;;
635;SDS011;302;50.206;8.196;2023-06-26T08:06:58;7.60;;;7.00;;
635;SDS011;302;50.206;8.196;2023-06-26T08:09:25;7.50;;;6.90;;
635;SDS011;302;50.206;8.196;2023-06-26T08:11:51;7.57;;;6.97;;
635;SDS011;302;50.206;8.196;2023-06-26T08:14:16;8.00;;;7.40;;
635;SDS011;302;50.206;8.196;2023-06-26T08:16:41;7.70;;;6.67;;
635;SDS011;302;50.206;8.196;2023-06-26T08:19:07;7.70;;;7.00;;
635;SDS011;302;50.206;8.196;2023-06-26T08:21:33;7.53;;;6.83;;
635;SDS011;302;50.206;8.196;2023-06-26T08:23:58;6.97;;;6.43;;
635;SDS011;302;50.206;8.196;2023-06-26T08:26:23;8.17;;;7.47;;
635;SDS011;302;50.206;8.196;2023-06-26T08:28:48;6.82;;;6.32;;
635;SDS011;302;50.206;8.196;2023-06-26T08:31:13;7.30;;;6.60;;
635;SDS011;302;50.206;8.196;2023-06-26T08:33:39;7.63;;;7.03;;
635;SDS011;302;50.206;8.196;2023-06-26T08:36:04;7.00;;;6.40;;
635;SDS011;302;50.206;8.196;2023-06-26T08:38:29;7.50;;;6.90;;
635;SDS011;302;50.206;8.196;2023-06-26T08:40:54;8.65;;;6.95;;
635;SDS011;302;50.206;8.196;2023-06-26T08:43:19;7.00;;;6.40;;
635;SDS011;302;50.206;8.196;2023-06-26T08:45:46;8.13;;;7.33;;
635;SDS011;302;50.206;8.196;2023-06-26T08:48:16;7.47;;;6.87;;
635;SDS011;302;50.206;8.196;2023-06-26T08:50:42;7.30;;;6.70;;
635;SDS011;302;50.206;8.196;2023-06-26T08:53:19;7.93;;;7.27;;
635;SDS011;302;50.206;8.196;2023-06-26T08:55:45;7.60;;;6.90;;
635;SDS011;302;50.206;8.196;2023-06-26T08:58:11;7.33;;;6.73;;
635;SDS011;302;50.206;8.196;2023-06-26T09:00:37;6.37;;;5.87;;
635;SDS011;302;50.206;8.196;2023-06-26T09:03:03;6.30;;;5.70;;
635;SDS011;302;50.206;8.196;2023-06-26T09:05:28;6.93;;;6.40;;
635;SDS011;302;50.206;8.196;2023-06-26T09:07:53;6.70;;;6.20;;
635;SDS011;302;50.206;8.196;2023-06-26T09:10:20;6.63;;;6.03;;
635;SDS011;302;50.206;8.196;2023-06-26T09:12:46;6.73;;;6.23;;
635;SDS011;302;50.206;8.196;2023-06-26T09:15:13;6.90;;;6.40;;
635;SDS011;302;50.206;8.196;2023-06-26T09:17:39;5.57;;;5.10;;
635;SDS011;302;50.206;8.196;2023-06-26T09:20:07;5.67;;;5.20;;
635;SDS011;302;50.206;8.196;2023-06-26T09:22:36;5.40;;;4.90;;
635;SDS011;302;50.206;8.196;2023-06-26T09:25:03;5.87;;;5.33;;
635;SDS011;302;50.206;8.196;2023-06-26T09:27:29;4.90;;;4.50;;
635;SDS011;302;50.206;8.196;2023-06-26T09:29:54;5.90;;;5.40;;
635;SDS011;302;50.206;8.196;2023-06-26T09:32:21;4.97;;;4.47;;
635;SDS011;302;50.206;8.196;2023-06-26T09:34:48;5.50;;;5.00;;
635;SDS011;302;50.206;8.196;2023-06-26T09:37:17;5.37;;;4.87;;
635;SDS011;302;50.206;8.196;2023-06-26T09:39:42;5.67;;;5.17;;
635;SDS011;302;50.206;8.196;2023-06-26T09:42:08;6.80;;;5.53;;
635;SDS011;302;50.206;8.196;2023-06-26T09:44:33;5.67;;;5.17;;
635;SDS011;302;50.206;8.196;2023-06-26T09:46:58;5.93;;;5.43;;
635;SDS011;302;50.206;8.196;2023-06-26T09:49:23;5.63;;;5.20;;
635;SDS011;302;50.206;8.196;2023-06-26T09:51:49;6.40;;;5.80;;
635;SDS011;302;50.206;8.196;2023-06-26T09:54:15;5.63;;;5.23;;
635;SDS011;302;50.206;8.196;2023-06-26T09:56:41;6.40;;;5.90;;
635;SDS011;302;50.206;8.196;2023-06-26T09:59:06;5.80;;;5.40;;
635;SDS011;302;50.206;8.196;2023-06-26T10:01:32;5.65;;;5.15;;
635;SDS011;302;50.206;8.196;2023-06-26T10:03:58;6.00;;;5.50;;
635;SDS011;302;50.206;8.196;2023-06-26T10:06:33;6.20;;;5.67;;
635;SDS011;302;50.206;8.196;2023-06-26T10:08:59;6.57;;;6.07;;
635;SDS011;302;50.206;8.196;2023-06-26T10:11:25;6.20;;;5.70;;
635;SDS011;302;50.206;8.196;2023-06-26T10:13:52;6.83;;;6.30;;
635;SDS011;302;50.206;8.196;2023-06-26T10:16:26;6.10;;;5.60;;
635;SDS011;302;50.206;8.196;2023-06-26T10:18:53;7.03;;;6.53;;
635;SDS011;302;50.206;8.196;2023-06-26T10:21:21;6.97;;;6.47;;
635;SDS011;302;50.206;8.196;2023-06-26T10:23:48;6.20;;;5.60;;
635;SDS011;302;50.206;8.196;2023-06-26T10:26:13;7.00;;;6.40;;
635;SDS011;302;50.206;8.196;2023-06-26T10:28:39;6.20;;;5.70;;
635;SDS011;302;50.206;8.196;2023-06-26T10:31:05;6.37;;;5.77;;
635;SDS011;302;50.206;8.196;2023-06-26T10:33:31;6.30;;;5.80;;
635;SDS011;302;50.206;8.196;2023-06-26T10:36:16;6.77;;;6.27;;
635;SDS011;302;50.206;8.196;2023-06-26T10:38:55;6.83;;;6.30;;
635;SDS011;302;50.206;8.196;2023-06-26T10:41:21;6.37;;;5.80;;
635;SDS011;302;50.206;8.196;2023-06-26T10:43:48;6.43;;;5.90;;
635;SDS011;302;50.206;8.196;2023-06-26T10:46:14;6.23;;;5.63;;
635;SDS011;302;50.206;8.196;2023-06-26T10:48:55;6.10;;;5.60;;
635;SDS011;302;50.206;8.196;2023-06-26T10:51:21;6.20;;;5.60;;
635;SDS011;302;50.206;8.196;2023-06-26T10:53:49;5.77;;;5.27;;
635;SDS011;302;50.206;8.196;2023-06-26T10:56:18;5.97;;;5.47;;
635;SDS011;302;50.206;8.196;2023-06-26T10:58:43;6.13;;;5.63;;
635;SDS011;302;50.206;8.196;2023-06-26T11:03:37;5.40;;;5.00;;
635;SDS011;302;50.206;8.196;2023-06-26T11:06:12;5.60;;;5.20;;
635;SDS011;302;50.206;8.196;2023-06-26T11:08:50;5.80;;;5.30;;
635;SDS011;302;50.206;8.196;2023-06-26T11:11:15;5.80;;;5.30;;
635;SDS011;302;50.206;8.196;2023-06-26T11:13:41;6.00;;;5.50;;
635;SDS011;302;50.206;8.196;2023-06-26T11:16:06;6.20;;;5.70;;
635;SDS011;302;50.206;8.196;2023-06-26T11:18:32;6.60;;;6.10;;
635;SDS011;302;50.206;8.196;2023-06-26T11:21:07;6.67;;;6.07;;
635;SDS011;302;50.206;8.196;2023-06-26T11:23:32;6.70;;;6.10;;
635;SDS011;302;50.206;8.196;2023-06-26T11:25:58;6.80;;;6.20;;
635;SDS011;302;50.206;8.196;2023-06-26T11:28:37;6.90;;;6.30;;
635;SDS011;302;50.206;8.196;2023-06-26T11:31:02;7.17;;;6.47;;
635;SDS011;302;50.206;8.196;2023-06-26T11:33:28;7.50;;;6.90;;
635;SDS011;302;50.206;8.196;2023-06-26T11:35:53;7.20;;;6.50;;
635;SDS011;302;50.206;8.196;2023-06-26T11:38:18;6.40;;;5.80;;
635;SDS011;302;50.206;8.196;2023-06-26T11:40:43;6.20;;;5.70;;
635;SDS011;302;50.206;8.196;2023-06-26T11:43:09;7.40;;;5.53;;
635;SDS011;302;50.206;8.196;2023-06-26T11:45:34;6.70;;;6.03;;
635;SDS011;302;50.206;8.196;2023-06-26T11:48:00;7.13;;;6.53;;
635;SDS011;302;50.206;8.196;2023-06-26T11:50:25;7.13;;;6.53;;
635;SDS011;302;50.206;8.196;2023-06-26T11:52:53;6.10;;;5.70;;
635;SDS011;302;50.206;8.196;2023-06-26T11:55:19;6.13;;;5.60;;
635;SDS011;302;50.206;8.196;2023-06-26T11:57:48;6.75;;;6.15;;
635;SDS011;302;50.206;8.196;2023-06-26T12:00:14;5.73;;;5.33;;
635;SDS011;302;50.206;8.196;2023-06-26T12:02:40;5.37;;;4.97;;
635;SDS011;302;50.206;8.196;2023-06-26T12:05:06;6.93;;;5.67;;
635;SDS011;302;50.206;8.196;2023-06-26T12:07:32;6.20;;;5.70;;
635;SDS011;302;50.206;8.196;2023-06-26T12:09:57;6.17;;;5.77;;
635;SDS011;302;50.206;8.196;2023-06-26T12:12:23;5.97;;;5.40;;
635;SDS011;302;50.206;8.196;2023-06-26T12:14:49;6.60;;;5.90;;
635;SDS011;302;50.206;8.196;2023-06-26T12:17:15;5.90;;;5.50;;
635;SDS011;302;50.206;8.196;2023-06-26T12:19:46;6.10;;;5.40;;
635;SDS011;302;50.206;8.196;2023-06-26T12:22:13;6.70;;;5.77;;
635;SDS011;302;50.206;8.196;2023-06-26T12:24:38;6.10;;;5.20;;
635;SDS011;302;50.206;8.196;2023-06-26T12:27:07;6.00;;;5.40;;
635;SDS011;302;50.206;8.196;2023-06-26T12:29:33;6.00;;;5.47;;
635;SDS011;302;50.206;8.196;2023-06-26T12:31:58;6.83;;;5.93;;
635;SDS011;302;50.206;8.196;2023-06-26T12:34:26;5.47;;;4.90;;
635;SDS011;302;50.206;8.196;2023-06-26T12:36:51;5.50;;;5.10;;
635;SDS011;302;50.206;8.196;2023-06-26T12:39:17;5.53;;;5.03;;
635;SDS011;302;50.206;8.196;2023-06-26T12:41:51;5.83;;;5.27;;
635;SDS011;302;50.206;8.196;2023-06-26T12:44:35;5.57;;;5.07;;
635;SDS011;302;50.206;8.196;2023-06-26T12:47:01;5.23;;;4.83;;
635;SDS011;302;50.206;8.196;2023-06-26T12:51:57;5.57;;;5.17;;
635;SDS011;302;50.206;8.196;2023-06-26T12:54:22;5.67;;;5.17;;
635;SDS011;302;50.206;8.196;2023-06-26T12:56:48;4.60;;;4.20;;
635;SDS011;302;50.206;8.196;2023-06-26T12:59:13;4.78;;;4.38;;
635;SDS011;302;50.206;8.196;2023-06-26T13:01:38;6.33;;;4.90;;
635;SDS011;302;50.206;8.196;2023-06-26T13:04:03;4.63;;;4.23;;
635;SDS011;302;50.206;8.196;2023-06-26T13:06:28;4.10;;;3.80;;
635;SDS011;302;50.206;8.196;2023-06-26T13:08:54;4.90;;;4.50;;
635;SDS011;302;50.206;8.196;2023-06-26T13:11:19;4.53;;;3.83;;
635;SDS011;302;50.206;8.196;2023-06-26T13:13:44;5.70;;;5.20;;
635;SDS011;302;50.206;8.196;2023-06-26T13:16:09;5.43;;;4.50;;
635;SDS011;302;50.206;8.196;2023-06-26T13:18:34;3.80;;;3.60;;
635;SDS011;302;50.206;8.196;2023-06-26T13:21:00;4.07;;;3.77;;
635;SDS011;302;50.206;8.196;2023-06-26T13:23:25;4.23;;;3.93;;
635;SDS011;302;50.206;8.196;2023-06-26T13:25:50;4.72;;;4.32;;
635;SDS011;302;50.206;8.196;2023-06-26T13:28:16;3.93;;;3.60;;
635;SDS011;302;50.206;8.196;2023-06-26T13:30:41;4.15;;;3.67;;
635;SDS011;302;50.206;8.196;2023-06-26T13:33:06;4.75;;;3.60;;
635;SDS011;302;50.206;8.196;2023-06-26T13:35:32;3.87;;;3.43;;
635;SDS011;302;50.206;8.196;2023-06-26T13:37:57;3.60;;;3.30;;
635;SDS011;302;50.206;8.196;2023-06-26T13:40:22;3.83;;;3.53;;
635;SDS011;302;50.206;8.196;2023-06-26T13:42:47;3.13;;;2.92;;
635;SDS011;302;50.206;8.196;2023-06-26T13:45:12;4.50;;;2.87;;
635;SDS011;302;50.206;8.196;2023-06-26T13:47:38;2.63;;;2.43;;
635;SDS011;302;50.206;8.196;2023-06-26T13:50:06;3.90;;;2.80;;
635;SDS011;302;50.206;8.196;2023-06-26T13:52:31;2.63;;;2.37;;
635;SDS011;302;50.206;8.196;2023-06-26T13:54:56;3.35;;;3.05;;
635;SDS011;302;50.206;8.196;2023-06-26T13:57:21;3.47;;;3.17;;
635;SDS011;302;50.206;8.196;2023-06-26T13:59:47;3.00;;;2.80;;
635;SDS011;302;50.206;8.196;2023-06-26T14:02:12;2.67;;;2.37;;
635;SDS011;302;50.206;8.196;2023-06-26T14:04:37;2.60;;;2.40;;
635;SDS011;302;50.206;8.196;2023-06-26T14:07:02;3.60;;;2.60;;
635;SDS011;302;50.206;8.196;2023-06-26T14:09:28;2.47;;;2.27;;
635;SDS011;302;50.206;8.196;2023-06-26T14:11:53;2.43;;;2.13;;
635;SDS011;302;50.206;8.196;2023-06-26T14:14:18;3.00;;;2.70;;
635;SDS011;302;50.206;8.196;2023-06-26T14:16:43;2.47;;;1.88;;
635;SDS011;302;50.206;8.196;2023-06-26T14:19:09;2.80;;;2.10;;
635;SDS011;302;50.206;8.196;2023-06-26T14:21:40;1.90;;;1.80;;
635;SDS011;302;50.206;8.196;2023-06-26T14:24:05;3.77;;;2.40;;
635;SDS011;302;50.206;8.196;2023-06-26T14:26:30;2.00;;;1.80;;
635;SDS011;302;50.206;8.196;2023-06-26T14:28:57;3.43;;;2.20;;
635;SDS011;302;50.206;8.196;2023-06-26T14:31:22;3.57;;;2.30;;
635;SDS011;302;50.206;8.196;2023-06-26T14:33:47;2.50;;;2.30;;
635;SDS011;302;50.206;8.196;2023-06-26T14:36:12;1.83;;;1.67;;
635;SDS011;302;50.206;8.196;2023-06-26T14:38:38;1.90;;;1.80;;
635;SDS011;302;50.206;8.196;2023-06-26T14:41:03;3.08;;;1.92;;
635;SDS011;302;50.206;8.196;2023-06-26T14:43:28;2.45;;;1.92;;
635;SDS011;302;50.206;8.196;2023-06-26T14:45:53;2.47;;;2.28;;
635;SDS011;302;50.206;8.196;2023-06-26T14:48:18;1.80;;;1.70;;
635;SDS011;302;50.206;8.196;2023-06-26T14:50:44;1.90;;;1.70;;
635;SDS011;302;50.206;8.196;2023-06-26T14:53:09;2.00;;;1.90;;
635;SDS011;302;50.206;8.196;2023-06-26T14:55:34;2.07;;;1.73;;
635;SDS011;302;50.206;8.196;2023-06-26T14:58:00;2.27;;;1.93;;
635;SDS011;302;50.206;8.196;2023-06-26T15:00:25;2.73;;;1.93;;
635;SDS011;302;50.206;8.196;2023-06-26T15:02:51;1.87;;;1.77;;
635;SDS011;302;50.206;8.196;2023-06-26T15:05:19;2.63;;;2.07;;
635;SDS011;302;50.206;8.196;2023-06-26T15:07:44;2.33;;;2.10;;
635;SDS011;302;50.206;8.196;2023-06-26T15:10:09;2.10;;;1.90;;
635;SDS011;302;50.206;8.196;2023-06-26T15:12:34;2.73;;;2.07;;
635;SDS011;302;50.206;8.196;2023-06-26T15:15:00;2.17;;;1.97;;
635;SDS011;302;50.206;8.196;2023-06-26T15:17:25;4.20;;;2.27;;
635;SDS011;302;50.206;8.196;2023-06-26T15:19:50;3.10;;;2.30;;
635;SDS011;302;50.206;8.196;2023-06-26T15:24:48;2.30;;;2.10;;
635;SDS011;302;50.206;8.196;2023-06-26T15:27:13;2.20;;;1.80;;
635;SDS011;302;50.206;8.196;2023-06-26T15:29:40;1.90;;;1.80;;
635;SDS011;302;50.206;8.196;2023-06-26T15:32:08;1.70;;;1.60;;
635;SDS011;302;50.206;8.196;2023-06-26T15:34:35;3.97;;;1.80;;
635;SDS011;302;50.206;8.196;2023-06-26T15:37:03;2.70;;;2.20;;
635;SDS011;302;50.206;8.196;2023-06-26T15:39:33;3.33;;;1.70;;
635;SDS011;302;50.206;8.196;2023-06-26T15:42:00;2.00;;;1.80;;
635;SDS011;302;50.206;8.196;2023-06-26T15:44:27;2.57;;;1.80;;
635;SDS011;302;50.206;8.196;2023-06-26T15:46:53;1.97;;;1.77;;
635;SDS011;302;50.206;8.196;2023-06-26T15:49:18;2.17;;;1.90;;